sensor_id;sensor_type;location;lat;lon;timestamp;P1;durP1;ratioP1;P2;durP2;ratioP2
68484;SDS011;55472;50.060;21.960;2023-02-01T00:00:50;10.43;;;3.50;;
68484;SDS011;55472;50.060;21.960;2023-02-01T00:03:26;8.48;;;3.58;;
68484;SDS011;55472;50.060;21.960;2023-02-01T00:05:56;9.50;;;3.53;;
68484;SDS011;55472;50.060;21.960;2023-02-01T00:08:26;10.55;;;3.72;;
68484;SDS011;55472;50.060;21.960;2023-02-01T00:10:59;10.75;;;3.67;;
68484;SDS011;55472;50.060;21.960;2023-02-01T00:13:34;9.95;;;3.50;;
68484;SDS011;55472;50.060;21.960;2023-02-01T00:16:13;8.10;;;3.05;;
68484;SDS011;55472;50.060;21.960;2023-02-01T00:18:43;12.00;;;3.27;;
68484;SDS011;55472;50.060;21.960;2023-02-01T00:21:11;7.95;;;3.05;;
68484;SDS011;55472;50.060;21.960;2023-02-01T00:23:41;9.15;;;3.30;;
68484;SDS011;55472;50.060;21.960;2023-02-01T00:26:12;8.60;;;3.10;;
68484;SDS011;55472;50.060;21.960;2023-02-01T00:28:45;8.13;;;3.03;;
68484;SDS011;55472;50.060;21.960;2023-02-01T00:31:12;8.77;;;3.37;;
68484;SDS011;55472;50.060;21.960;2023-02-01T00:33:38;9.88;;;3.13;;
68484;SDS011;55472;50.060;21.960;2023-02-01T00:36:05;8.82;;;3.60;;
68484;SDS011;55472;50.060;21.960;2023-02-01T00:38:33;8.43;;;3.03;;
68484;SDS011;55472;50.060;21.960;2023-02-01T00:41:03;9.18;;;3.00;;
68484;SDS011;55472;50.060;21.960;2023-02-01T00:43:32;8.17;;;3.10;;
68484;SDS011;55472;50.060;21.960;2023-02-01T00:46:00;9.95;;;2.97;;
68484;SDS011;55472;50.060;21.960;2023-02-01T00:48:26;7.65;;;3.15;;
68484;SDS011;55472;50.060;21.960;2023-02-01T00:50:52;9.20;;;3.60;;
68484;SDS011;55472;50.060;21.960;2023-02-01T00:53:19;14.48;;;4.35;;
68484;SDS011;55472;50.060;21.960;2023-02-01T00:55:45;9.13;;;3.10;;
68484;SDS011;55472;50.060;21.960;2023-02-01T00:58:14;9.73;;;3.00;;
68484;SDS011;55472;50.060;21.960;2023-02-01T01:00:40;7.82;;;2.78;;
68484;SDS011;55472;50.060;21.960;2023-02-01T01:03:07;7.63;;;2.10;;
68484;SDS011;55472;50.060;21.960;2023-02-01T01:05:46;6.88;;;2.78;;
68484;SDS011;55472;50.060;21.960;2023-02-01T01:08:14;8.20;;;2.90;;
68484;SDS011;55472;50.060;21.960;2023-02-01T01:10:41;7.13;;;2.15;;
68484;SDS011;55472;50.060;21.960;2023-02-01T01:13:08;5.95;;;2.17;;
68484;SDS011;55472;50.060;21.960;2023-02-01T01:15:39;5.53;;;2.30;;
68484;SDS011;55472;50.060;21.960;2023-02-01T01:18:06;8.25;;;2.53;;
68484;SDS011;55472;50.060;21.960;2023-02-01T01:20:36;6.33;;;2.10;;
68484;SDS011;55472;50.060;21.960;2023-02-01T01:23:05;6.25;;;2.00;;
68484;SDS011;55472;50.060;21.960;2023-02-01T01:25:32;7.38;;;2.83;;
68484;SDS011;55472;50.060;21.960;2023-02-01T01:28:04;7.28;;;2.50;;
68484;SDS011;55472;50.060;21.960;2023-02-01T01:30:32;6.90;;;2.83;;
68484;SDS011;55472;50.060;21.960;2023-02-01T01:33:00;6.90;;;2.37;;
68484;SDS011;55472;50.060;21.960;2023-02-01T01:35:28;9.00;;;2.58;;
68484;SDS011;55472;50.060;21.960;2023-02-01T01:37:57;8.00;;;2.33;;
68484;SDS011;55472;50.060;21.960;2023-02-01T01:40:25;8.07;;;2.53;;
68484;SDS011;55472;50.060;21.960;2023-02-01T01:42:53;7.00;;;2.53;;
68484;SDS011;55472;50.060;21.960;2023-02-01T01:45:25;6.27;;;2.53;;
68484;SDS011;55472;50.060;21.960;2023-02-01T01:47:58;6.80;;;2.40;;
68484;SDS011;55472;50.060;21.960;2023-02-01T01:50:37;8.95;;;2.95;;
68484;SDS011;55472;50.060;21.960;2023-02-01T01:53:08;9.45;;;2.47;;
68484;SDS011;55472;50.060;21.960;2023-02-01T01:55:40;8.68;;;2.58;;
68484;SDS011;55472;50.060;21.960;2023-02-01T01:58:10;7.30;;;2.73;;
68484;SDS011;55472;50.060;21.960;2023-02-01T02:03:40;6.75;;;2.53;;
68484;SDS011;55472;50.060;21.960;2023-02-01T02:06:20;7.53;;;2.65;;
68484;SDS011;55472;50.060;21.960;2023-02-01T02:09:13;5.55;;;2.28;;
68484;SDS011;55472;50.060;21.960;2023-02-01T02:11:40;7.63;;;2.33;;
68484;SDS011;55472;50.060;21.960;2023-02-01T02:14:07;6.25;;;2.05;;
68484;SDS011;55472;50.060;21.960;2023-02-01T02:25:32;6.40;;;2.60;;
68484;SDS011;55472;50.060;21.960;2023-02-01T02:33:57;6.55;;;1.88;;
68484;SDS011;55472;50.060;21.960;2023-02-01T02:39:48;6.63;;;2.20;;
68484;SDS011;55472;50.060;21.960;2023-02-01T02:42:27;4.63;;;1.70;;
68484;SDS011;55472;50.060;21.960;2023-02-01T02:45:40;5.25;;;1.73;;
68484;SDS011;55472;50.060;21.960;2023-02-01T02:48:43;6.18;;;2.08;;
68484;SDS011;55472;50.060;21.960;2023-02-01T02:51:28;5.50;;;2.15;;
68484;SDS011;55472;50.060;21.960;2023-02-01T02:54:35;5.27;;;2.17;;
68484;SDS011;55472;50.060;21.960;2023-02-01T02:57:13;5.20;;;1.90;;
68484;SDS011;55472;50.060;21.960;2023-02-01T03:00:04;6.07;;;2.30;;
68484;SDS011;55472;50.060;21.960;2023-02-01T03:02:54;5.50;;;1.83;;
68484;SDS011;55472;50.060;21.960;2023-02-01T03:05:44;6.18;;;2.00;;
68484;SDS011;55472;50.060;21.960;2023-02-01T03:08:16;6.10;;;2.20;;
68484;SDS011;55472;50.060;21.960;2023-02-01T03:16:28;8.05;;;2.30;;
68484;SDS011;55472;50.060;21.960;2023-02-01T03:19:03;9.57;;;2.22;;
68484;SDS011;55472;50.060;21.960;2023-02-01T03:21:45;6.70;;;2.30;;
68484;SDS011;55472;50.060;21.960;2023-02-01T03:24:39;7.25;;;2.22;;
68484;SDS011;55472;50.060;21.960;2023-02-01T03:30:04;8.32;;;1.85;;
68484;SDS011;55472;50.060;21.960;2023-02-01T03:32:46;8.07;;;2.38;;
68484;SDS011;55472;50.060;21.960;2023-02-01T03:35:43;7.10;;;1.70;;
68484;SDS011;55472;50.060;21.960;2023-02-01T03:41:18;6.38;;;2.10;;
68484;SDS011;55472;50.060;21.960;2023-02-01T03:43:56;7.15;;;1.77;;
68484;SDS011;55472;50.060;21.960;2023-02-01T03:47:25;5.45;;;1.70;;
68484;SDS011;55472;50.060;21.960;2023-02-01T03:52:32;8.38;;;2.03;;
68484;SDS011;55472;50.060;21.960;2023-02-01T03:55:08;5.68;;;1.52;;
68484;SDS011;55472;50.060;21.960;2023-02-01T03:57:39;5.07;;;1.38;;
68484;SDS011;55472;50.060;21.960;2023-02-01T04:00:16;5.57;;;1.45;;
68484;SDS011;55472;50.060;21.960;2023-02-01T04:02:47;5.03;;;1.07;;
68484;SDS011;55472;50.060;21.960;2023-02-01T04:05:14;4.72;;;1.33;;
68484;SDS011;55472;50.060;21.960;2023-02-01T04:07:40;6.70;;;1.70;;
68484;SDS011;55472;50.060;21.960;2023-02-01T04:10:06;6.88;;;1.30;;
68484;SDS011;55472;50.060;21.960;2023-02-01T04:12:34;6.45;;;2.05;;
68484;SDS011;55472;50.060;21.960;2023-02-01T04:15:00;6.53;;;1.63;;
68484;SDS011;55472;50.060;21.960;2023-02-01T04:17:26;7.75;;;2.20;;
68484;SDS011;55472;50.060;21.960;2023-02-01T04:19:53;10.15;;;2.50;;
68484;SDS011;55472;50.060;21.960;2023-02-01T04:22:19;7.28;;;2.25;;
68484;SDS011;55472;50.060;21.960;2023-02-01T04:24:45;5.55;;;2.17;;
68484;SDS011;55472;50.060;21.960;2023-02-01T04:27:11;8.87;;;2.60;;
68484;SDS011;55472;50.060;21.960;2023-02-01T04:29:38;6.65;;;2.55;;
68484;SDS011;55472;50.060;21.960;2023-02-01T04:32:05;7.47;;;2.53;;
68484;SDS011;55472;50.060;21.960;2023-02-01T04:34:31;7.13;;;2.13;;
68484;SDS011;55472;50.060;21.960;2023-02-01T04:36:57;6.95;;;2.17;;
68484;SDS011;55472;50.060;21.960;2023-02-01T04:39:23;9.73;;;2.57;;
68484;SDS011;55472;50.060;21.960;2023-02-01T04:41:50;9.02;;;1.98;;
68484;SDS011;55472;50.060;21.960;2023-02-01T04:44:16;7.25;;;2.15;;
68484;SDS011;55472;50.060;21.960;2023-02-01T04:46:44;10.85;;;2.03;;
68484;SDS011;55472;50.060;21.960;2023-02-01T04:49:12;8.32;;;2.30;;
68484;SDS011;55472;50.060;21.960;2023-02-01T04:51:40;8.33;;;2.00;;
68484;SDS011;55472;50.060;21.960;2023-02-01T04:54:06;7.07;;;1.98;;
68484;SDS011;55472;50.060;21.960;2023-02-01T04:56:36;8.18;;;1.90;;
68484;SDS011;55472;50.060;21.960;2023-02-01T04:59:03;5.82;;;1.60;;
68484;SDS011;55472;50.060;21.960;2023-02-01T05:01:30;9.77;;;1.70;;
68484;SDS011;55472;50.060;21.960;2023-02-01T05:03:57;8.27;;;1.40;;
68484;SDS011;55472;50.060;21.960;2023-02-01T05:06:26;7.35;;;1.40;;
68484;SDS011;55472;50.060;21.960;2023-02-01T05:08:52;8.07;;;1.40;;
68484;SDS011;55472;50.060;21.960;2023-02-01T05:11:19;9.57;;;1.75;;
68484;SDS011;55472;50.060;21.960;2023-02-01T05:14:03;6.60;;;0.98;;
68484;SDS011;55472;50.060;21.960;2023-02-01T05:16:30;5.03;;;1.10;;
68484;SDS011;55472;50.060;21.960;2023-02-01T05:18:56;6.13;;;1.55;;
68484;SDS011;55472;50.060;21.960;2023-02-01T05:21:22;8.70;;;1.88;;
68484;SDS011;55472;50.060;21.960;2023-02-01T05:23:49;7.10;;;1.70;;
68484;SDS011;55472;50.060;21.960;2023-02-01T05:26:34;8.40;;;1.30;;
68484;SDS011;55472;50.060;21.960;2023-02-01T05:29:06;8.77;;;1.40;;
68484;SDS011;55472;50.060;21.960;2023-02-01T05:31:33;6.75;;;1.42;;
68484;SDS011;55472;50.060;21.960;2023-02-01T05:33:59;9.25;;;1.35;;
68484;SDS011;55472;50.060;21.960;2023-02-01T05:36:26;8.20;;;1.25;;
68484;SDS011;55472;50.060;21.960;2023-02-01T05:38:52;8.35;;;1.25;;
68484;SDS011;55472;50.060;21.960;2023-02-01T05:41:18;9.70;;;1.80;;
68484;SDS011;55472;50.060;21.960;2023-02-01T05:43:44;3.47;;;1.10;;
68484;SDS011;55472;50.060;21.960;2023-02-01T05:46:11;12.05;;;1.20;;
68484;SDS011;55472;50.060;21.960;2023-02-01T05:48:39;6.60;;;1.60;;
68484;SDS011;55472;50.060;21.960;2023-02-01T05:51:06;6.35;;;0.90;;
68484;SDS011;55472;50.060;21.960;2023-02-01T05:53:32;8.27;;;1.17;;
68484;SDS011;55472;50.060;21.960;2023-02-01T05:55:59;10.43;;;1.20;;
68484;SDS011;55472;50.060;21.960;2023-02-01T05:58:25;4.63;;;0.75;;
68484;SDS011;55472;50.060;21.960;2023-02-01T06:00:51;5.15;;;0.82;;
68484;SDS011;55472;50.060;21.960;2023-02-01T06:03:18;9.95;;;1.15;;
68484;SDS011;55472;50.060;21.960;2023-02-01T06:05:45;4.57;;;0.93;;
68484;SDS011;55472;50.060;21.960;2023-02-01T06:08:12;6.05;;;1.00;;
68484;SDS011;55472;50.060;21.960;2023-02-01T06:10:39;3.85;;;0.70;;
68484;SDS011;55472;50.060;21.960;2023-02-01T06:13:05;6.85;;;0.65;;
68484;SDS011;55472;50.060;21.960;2023-02-01T06:15:32;8.93;;;0.70;;
68484;SDS011;55472;50.060;21.960;2023-02-01T06:17:58;6.30;;;0.80;;
68484;SDS011;55472;50.060;21.960;2023-02-01T06:20:25;5.63;;;0.80;;
68484;SDS011;55472;50.060;21.960;2023-02-01T06:22:51;6.32;;;0.93;;
68484;SDS011;55472;50.060;21.960;2023-02-01T06:25:18;2.97;;;0.50;;
68484;SDS011;55472;50.060;21.960;2023-02-01T06:27:44;3.67;;;0.77;;
68484;SDS011;55472;50.060;21.960;2023-02-01T06:30:11;3.40;;;0.60;;
68484;SDS011;55472;50.060;21.960;2023-02-01T06:32:40;3.67;;;0.80;;
68484;SDS011;55472;50.060;21.960;2023-02-01T06:35:07;7.50;;;1.27;;
68484;SDS011;55472;50.060;21.960;2023-02-01T06:37:36;6.30;;;1.08;;
68484;SDS011;55472;50.060;21.960;2023-02-01T06:40:03;6.47;;;1.02;;
68484;SDS011;55472;50.060;21.960;2023-02-01T06:42:30;5.90;;;1.10;;
68484;SDS011;55472;50.060;21.960;2023-02-01T06:44:58;8.35;;;1.25;;
68484;SDS011;55472;50.060;21.960;2023-02-01T06:47:24;5.60;;;1.33;;
68484;SDS011;55472;50.060;21.960;2023-02-01T06:49:50;6.93;;;1.23;;
68484;SDS011;55472;50.060;21.960;2023-02-01T06:52:16;9.70;;;1.30;;
68484;SDS011;55472;50.060;21.960;2023-02-01T06:54:43;4.77;;;1.00;;
68484;SDS011;55472;50.060;21.960;2023-02-01T06:57:09;8.07;;;1.40;;
68484;SDS011;55472;50.060;21.960;2023-02-01T06:59:35;8.07;;;1.40;;
68484;SDS011;55472;50.060;21.960;2023-02-01T07:02:01;5.70;;;1.10;;
68484;SDS011;55472;50.060;21.960;2023-02-01T07:04:28;13.77;;;2.67;;
68484;SDS011;55472;50.060;21.960;2023-02-01T07:06:54;7.30;;;1.80;;
68484;SDS011;55472;50.060;21.960;2023-02-01T07:09:20;7.93;;;1.70;;
68484;SDS011;55472;50.060;21.960;2023-02-01T07:11:46;10.07;;;1.88;;
68484;SDS011;55472;50.060;21.960;2023-02-01T07:14:13;8.15;;;1.85;;
68484;SDS011;55472;50.060;21.960;2023-02-01T07:16:39;6.10;;;1.48;;
68484;SDS011;55472;50.060;21.960;2023-02-01T07:19:05;6.87;;;1.90;;
68484;SDS011;55472;50.060;21.960;2023-02-01T07:21:31;7.90;;;2.08;;
68484;SDS011;55472;50.060;21.960;2023-02-01T07:23:58;5.70;;;0.85;;
68484;SDS011;55472;50.060;21.960;2023-02-01T07:26:25;7.40;;;1.65;;
68484;SDS011;55472;50.060;21.960;2023-02-01T07:28:51;7.25;;;1.35;;
68484;SDS011;55472;50.060;21.960;2023-02-01T07:31:18;5.57;;;1.37;;
68484;SDS011;55472;50.060;21.960;2023-02-01T07:33:47;6.85;;;1.50;;
68484;SDS011;55472;50.060;21.960;2023-02-01T07:36:18;9.68;;;1.80;;
68484;SDS011;55472;50.060;21.960;2023-02-01T07:38:45;8.70;;;1.52;;
68484;SDS011;55472;50.060;21.960;2023-02-01T07:41:16;10.07;;;1.60;;
68484;SDS011;55472;50.060;21.960;2023-02-01T07:43:43;7.23;;;1.60;;
68484;SDS011;55472;50.060;21.960;2023-02-01T07:46:09;6.00;;;1.50;;
68484;SDS011;55472;50.060;21.960;2023-02-01T07:48:37;7.05;;;1.20;;
68484;SDS011;55472;50.060;21.960;2023-02-01T07:51:05;7.75;;;1.30;;
68484;SDS011;55472;50.060;21.960;2023-02-01T07:53:35;8.88;;;1.70;;
68484;SDS011;55472;50.060;21.960;2023-02-01T07:56:02;7.93;;;1.30;;
68484;SDS011;55472;50.060;21.960;2023-02-01T07:58:30;7.35;;;1.30;;
68484;SDS011;55472;50.060;21.960;2023-02-01T08:00:56;4.47;;;1.20;;
68484;SDS011;55472;50.060;21.960;2023-02-01T08:03:41;6.65;;;0.80;;
68484;SDS011;55472;50.060;21.960;2023-02-01T08:06:07;5.78;;;1.08;;
68484;SDS011;55472;50.060;21.960;2023-02-01T08:08:33;7.33;;;1.33;;
68484;SDS011;55472;50.060;21.960;2023-02-01T08:11:00;10.93;;;1.70;;
68484;SDS011;55472;50.060;21.960;2023-02-01T08:13:29;6.28;;;1.25;;
68484;SDS011;55472;50.060;21.960;2023-02-01T08:15:59;5.38;;;1.85;;
68484;SDS011;55472;50.060;21.960;2023-02-01T08:18:28;11.60;;;2.20;;
68484;SDS011;55472;50.060;21.960;2023-02-01T08:20:54;5.80;;;1.80;;
68484;SDS011;55472;50.060;21.960;2023-02-01T08:23:22;6.78;;;1.63;;
68484;SDS011;55472;50.060;21.960;2023-02-01T08:25:48;7.68;;;1.98;;
68484;SDS011;55472;50.060;21.960;2023-02-01T08:28:15;6.35;;;1.77;;
68484;SDS011;55472;50.060;21.960;2023-02-01T08:30:41;6.00;;;2.08;;
68484;SDS011;55472;50.060;21.960;2023-02-01T08:33:07;9.17;;;2.13;;
68484;SDS011;55472;50.060;21.960;2023-02-01T08:35:34;7.20;;;2.10;;
68484;SDS011;55472;50.060;21.960;2023-02-01T08:38:02;7.78;;;1.60;;
68484;SDS011;55472;50.060;21.960;2023-02-01T08:40:28;9.48;;;2.20;;
68484;SDS011;55472;50.060;21.960;2023-02-01T08:42:55;10.00;;;2.08;;
68484;SDS011;55472;50.060;21.960;2023-02-01T08:45:23;7.43;;;1.93;;
68484;SDS011;55472;50.060;21.960;2023-02-01T08:47:53;8.80;;;1.85;;
68484;SDS011;55472;50.060;21.960;2023-02-01T08:50:21;9.00;;;1.75;;
68484;SDS011;55472;50.060;21.960;2023-02-01T08:52:48;6.15;;;2.15;;
68484;SDS011;55472;50.060;21.960;2023-02-01T08:55:14;7.85;;;1.73;;
68484;SDS011;55472;50.060;21.960;2023-02-01T08:57:41;7.60;;;1.90;;
68484;SDS011;55472;50.060;21.960;2023-02-01T09:00:09;7.93;;;1.88;;
68484;SDS011;55472;50.060;21.960;2023-02-01T09:02:41;6.15;;;1.50;;
68484;SDS011;55472;50.060;21.960;2023-02-01T09:05:07;6.88;;;1.60;;
68484;SDS011;55472;50.060;21.960;2023-02-01T09:07:36;6.50;;;1.73;;
68484;SDS011;55472;50.060;21.960;2023-02-01T09:10:03;10.00;;;1.57;;
68484;SDS011;55472;50.060;21.960;2023-02-01T09:12:30;8.02;;;1.40;;
68484;SDS011;55472;50.060;21.960;2023-02-01T09:14:58;7.82;;;1.50;;
68484;SDS011;55472;50.060;21.960;2023-02-01T09:17:25;7.45;;;1.65;;
68484;SDS011;55472;50.060;21.960;2023-02-01T09:19:52;5.85;;;1.80;;
68484;SDS011;55472;50.060;21.960;2023-02-01T09:22:19;6.53;;;1.40;;
68484;SDS011;55472;50.060;21.960;2023-02-01T09:24:46;10.10;;;2.50;;
68484;SDS011;55472;50.060;21.960;2023-02-01T09:27:13;11.93;;;2.40;;
68484;SDS011;55472;50.060;21.960;2023-02-01T09:29:39;13.77;;;2.00;;
68484;SDS011;55472;50.060;21.960;2023-02-01T09:32:05;8.70;;;2.20;;
68484;SDS011;55472;50.060;21.960;2023-02-01T09:34:32;7.47;;;1.70;;
68484;SDS011;55472;50.060;21.960;2023-02-01T09:37:00;9.52;;;2.83;;
68484;SDS011;55472;50.060;21.960;2023-02-01T09:39:27;10.95;;;3.13;;
68484;SDS011;55472;50.060;21.960;2023-02-01T09:45:24;11.20;;;1.73;;
68484;SDS011;55472;50.060;21.960;2023-02-01T09:48:15;7.23;;;1.83;;
68484;SDS011;55472;50.060;21.960;2023-02-01T09:50:56;9.90;;;2.40;;
68484;SDS011;55472;50.060;21.960;2023-02-01T09:53:26;11.77;;;2.88;;
68484;SDS011;55472;50.060;21.960;2023-02-01T09:56:09;6.72;;;2.00;;
68484;SDS011;55472;50.060;21.960;2023-02-01T09:58:52;9.77;;;1.83;;
68484;SDS011;55472;50.060;21.960;2023-02-01T10:01:26;8.07;;;2.00;;
68484;SDS011;55472;50.060;21.960;2023-02-01T10:03:57;7.88;;;2.47;;
68484;SDS011;55472;50.060;21.960;2023-02-01T10:06:49;10.50;;;2.45;;
68484;SDS011;55472;50.060;21.960;2023-02-01T10:20:01;10.30;;;2.33;;
68484;SDS011;55472;50.060;21.960;2023-02-01T10:22:49;13.73;;;2.17;;
68484;SDS011;55472;50.060;21.960;2023-02-01T10:25:32;9.60;;;2.35;;
68484;SDS011;55472;50.060;21.960;2023-02-01T10:28:14;6.95;;;1.58;;
68484;SDS011;55472;50.060;21.960;2023-02-01T10:30:43;7.73;;;1.50;;
68484;SDS011;55472;50.060;21.960;2023-02-01T10:33:17;9.05;;;1.85;;
68484;SDS011;55472;50.060;21.960;2023-02-01T10:36:32;8.50;;;2.28;;
68484;SDS011;55472;50.060;21.960;2023-02-01T10:39:18;12.75;;;2.60;;
68484;SDS011;55472;50.060;21.960;2023-02-01T10:41:44;8.63;;;1.83;;
68484;SDS011;55472;50.060;21.960;2023-02-01T10:44:13;14.20;;;2.90;;
68484;SDS011;55472;50.060;21.960;2023-02-01T10:46:42;11.02;;;1.95;;
68484;SDS011;55472;50.060;21.960;2023-02-01T10:49:12;7.35;;;1.85;;
68484;SDS011;55472;50.060;21.960;2023-02-01T10:52:35;6.57;;;1.70;;
68484;SDS011;55472;50.060;21.960;2023-02-01T10:54:47;7.07;;;2.00;;
68484;SDS011;55472;50.060;21.960;2023-02-01T10:57:31;8.67;;;1.97;;
68484;SDS011;55472;50.060;21.960;2023-02-01T10:59:58;11.70;;;2.50;;
68484;SDS011;55472;50.060;21.960;2023-02-01T11:02:44;9.40;;;2.53;;
68484;SDS011;55472;50.060;21.960;2023-02-01T11:05:10;7.90;;;1.73;;
68484;SDS011;55472;50.060;21.960;2023-02-01T11:07:38;7.40;;;1.65;;
68484;SDS011;55472;50.060;21.960;2023-02-01T11:10:56;5.53;;;1.30;;
68484;SDS011;55472;50.060;21.960;2023-02-01T11:13:03;7.78;;;1.70;;
68484;SDS011;55472;50.060;21.960;2023-02-01T11:15:31;9.07;;;1.50;;
68484;SDS011;55472;50.060;21.960;2023-02-01T11:17:57;10.05;;;1.50;;
68484;SDS011;55472;50.060;21.960;2023-02-01T11:20:42;9.13;;;1.50;;
68484;SDS011;55472;50.060;21.960;2023-02-01T11:23:15;7.37;;;1.23;;
68484;SDS011;55472;50.060;21.960;2023-02-01T11:25:53;4.70;;;1.20;;
68484;SDS011;55472;50.060;21.960;2023-02-01T11:28:23;6.40;;;1.40;;
68484;SDS011;55472;50.060;21.960;2023-02-01T11:30:58;5.65;;;1.60;;
68484;SDS011;55472;50.060;21.960;2023-02-01T11:33:31;7.82;;;1.60;;
68484;SDS011;55472;50.060;21.960;2023-02-01T11:36:08;6.53;;;1.70;;
68484;SDS011;55472;50.060;21.960;2023-02-01T11:39:43;7.78;;;1.55;;
68484;SDS011;55472;50.060;21.960;2023-02-01T11:49:51;7.00;;;1.73;;
68484;SDS011;55472;50.060;21.960;2023-02-01T11:58:26;6.55;;;1.60;;
68484;SDS011;55472;50.060;21.960;2023-02-01T12:07:17;9.57;;;2.10;;
68484;SDS011;55472;50.060;21.960;2023-02-01T12:13:12;8.70;;;2.08;;
68484;SDS011;55472;50.060;21.960;2023-02-01T12:16:00;10.05;;;2.67;;
68484;SDS011;55472;50.060;21.960;2023-02-01T12:39:05;9.45;;;2.95;;
68484;SDS011;55472;50.060;21.960;2023-02-01T12:42:01;9.38;;;2.60;;
68484;SDS011;55472;50.060;21.960;2023-02-01T12:44:55;10.82;;;2.65;;
68484;SDS011;55472;50.060;21.960;2023-02-01T12:47:36;10.63;;;3.07;;
68484;SDS011;55472;50.060;21.960;2023-02-01T12:50:29;11.40;;;2.95;;
68484;SDS011;55472;50.060;21.960;2023-02-01T12:53:12;12.90;;;3.30;;
68484;SDS011;55472;50.060;21.960;2023-02-01T12:55:54;11.50;;;3.75;;
68484;SDS011;55472;50.060;21.960;2023-02-01T12:58:34;11.98;;;3.03;;
68484;SDS011;55472;50.060;21.960;2023-02-01T13:01:25;10.30;;;2.67;;
68484;SDS011;55472;50.060;21.960;2023-02-01T13:04:25;10.57;;;2.20;;
68484;SDS011;55472;50.060;21.960;2023-02-01T13:07:04;13.13;;;3.00;;
68484;SDS011;55472;50.060;21.960;2023-02-01T13:15:41;10.63;;;2.80;;
68484;SDS011;55472;50.060;21.960;2023-02-01T13:18:25;12.02;;;3.45;;
68484;SDS011;55472;50.060;21.960;2023-02-01T13:21:04;15.45;;;3.75;;
68484;SDS011;55472;50.060;21.960;2023-02-01T13:23:39;10.70;;;3.15;;
68484;SDS011;55472;50.060;21.960;2023-02-01T13:26:07;12.13;;;2.65;;
68484;SDS011;55472;50.060;21.960;2023-02-01T13:28:44;8.90;;;2.27;;
68484;SDS011;55472;50.060;21.960;2023-02-01T13:37:31;7.20;;;2.03;;
68484;SDS011;55472;50.060;21.960;2023-02-01T13:43:18;7.33;;;1.90;;
68484;SDS011;55472;50.060;21.960;2023-02-01T13:45:50;7.38;;;1.90;;
68484;SDS011;55472;50.060;21.960;2023-02-01T13:48:55;8.55;;;1.90;;
68484;SDS011;55472;50.060;21.960;2023-02-01T13:51:37;9.38;;;2.13;;
68484;SDS011;55472;50.060;21.960;2023-02-01T13:57:02;10.77;;;2.43;;
68484;SDS011;55472;50.060;21.960;2023-02-01T13:59:49;9.25;;;2.17;;
68484;SDS011;55472;50.060;21.960;2023-02-01T14:02:37;9.90;;;2.40;;
68484;SDS011;55472;50.060;21.960;2023-02-01T14:13:40;10.50;;;2.53;;
68484;SDS011;55472;50.060;21.960;2023-02-01T14:16:11;7.97;;;2.50;;
68484;SDS011;55472;50.060;21.960;2023-02-01T14:24:15;5.83;;;1.90;;
68484;SDS011;55472;50.060;21.960;2023-02-01T14:27:03;11.75;;;3.28;;
68484;SDS011;55472;50.060;21.960;2023-02-01T14:29:43;8.02;;;2.13;;
68484;SDS011;55472;50.060;21.960;2023-02-01T14:32:24;8.55;;;2.70;;
68484;SDS011;55472;50.060;21.960;2023-02-01T14:34:55;8.85;;;2.53;;
68484;SDS011;55472;50.060;21.960;2023-02-01T14:37:29;7.77;;;2.53;;
68484;SDS011;55472;50.060;21.960;2023-02-01T14:42:45;5.80;;;2.47;;
68484;SDS011;55472;50.060;21.960;2023-02-01T14:47:44;9.98;;;3.10;;
68484;SDS011;55472;50.060;21.960;2023-02-01T14:50:17;9.47;;;2.53;;
68484;SDS011;55472;50.060;21.960;2023-02-01T15:01:06;6.43;;;2.55;;
68484;SDS011;55472;50.060;21.960;2023-02-01T15:03:52;9.47;;;2.23;;
68484;SDS011;55472;50.060;21.960;2023-02-01T15:09:34;6.45;;;2.10;;
68484;SDS011;55472;50.060;21.960;2023-02-01T15:14:39;8.18;;;2.47;;
68484;SDS011;55472;50.060;21.960;2023-02-01T15:17:25;8.70;;;2.77;;
68484;SDS011;55472;50.060;21.960;2023-02-01T15:19:59;10.10;;;2.88;;
68484;SDS011;55472;50.060;21.960;2023-02-01T15:25:29;8.88;;;2.70;;
68484;SDS011;55472;50.060;21.960;2023-02-01T15:28:00;12.18;;;3.88;;
68484;SDS011;55472;50.060;21.960;2023-02-01T15:30:27;16.47;;;4.83;;
68484;SDS011;55472;50.060;21.960;2023-02-01T15:33:16;15.02;;;4.63;;
68484;SDS011;55472;50.060;21.960;2023-02-01T15:35:45;14.65;;;4.90;;
68484;SDS011;55472;50.060;21.960;2023-02-01T15:43:24;18.13;;;5.07;;
68484;SDS011;55472;50.060;21.960;2023-02-01T15:45:55;17.95;;;5.68;;
68484;SDS011;55472;50.060;21.960;2023-02-01T15:48:24;22.65;;;6.57;;
68484;SDS011;55472;50.060;21.960;2023-02-01T15:50:54;23.65;;;7.95;;
68484;SDS011;55472;50.060;21.960;2023-02-01T15:53:22;25.58;;;8.43;;
68484;SDS011;55472;50.060;21.960;2023-02-01T15:55:54;27.83;;;8.43;;
68484;SDS011;55472;50.060;21.960;2023-02-01T15:58:25;25.60;;;7.70;;
68484;SDS011;55472;50.060;21.960;2023-02-01T16:00:54;21.50;;;6.88;;
68484;SDS011;55472;50.060;21.960;2023-02-01T16:05:55;20.83;;;7.55;;
68484;SDS011;55472;50.060;21.960;2023-02-01T16:08:52;21.23;;;7.40;;
68484;SDS011;55472;50.060;21.960;2023-02-01T16:11:29;22.60;;;7.60;;
68484;SDS011;55472;50.060;21.960;2023-02-01T16:13:58;29.17;;;10.00;;
68484;SDS011;55472;50.060;21.960;2023-02-01T16:16:27;37.22;;;11.27;;
68484;SDS011;55472;50.060;21.960;2023-02-01T16:18:54;33.92;;;11.90;;
68484;SDS011;55472;50.060;21.960;2023-02-01T16:21:20;24.90;;;8.90;;
68484;SDS011;55472;50.060;21.960;2023-02-01T16:23:50;28.67;;;8.68;;
68484;SDS011;55472;50.060;21.960;2023-02-01T16:26:17;27.10;;;8.55;;
68484;SDS011;55472;50.060;21.960;2023-02-01T16:28:44;20.20;;;7.38;;
68484;SDS011;55472;50.060;21.960;2023-02-01T16:31:11;20.63;;;6.57;;
68484;SDS011;55472;50.060;21.960;2023-02-01T16:33:50;22.73;;;6.57;;
68484;SDS011;55472;50.060;21.960;2023-02-01T16:36:17;20.00;;;6.60;;
68484;SDS011;55472;50.060;21.960;2023-02-01T16:38:45;22.52;;;7.65;;
68484;SDS011;55472;50.060;21.960;2023-02-01T16:41:18;24.67;;;7.65;;
68484;SDS011;55472;50.060;21.960;2023-02-01T16:43:49;18.88;;;7.38;;
68484;SDS011;55472;50.060;21.960;2023-02-01T16:46:18;24.63;;;8.57;;
68484;SDS011;55472;50.060;21.960;2023-02-01T16:48:52;29.20;;;10.85;;
68484;SDS011;55472;50.060;21.960;2023-02-01T16:51:21;24.35;;;7.75;;
68484;SDS011;55472;50.060;21.960;2023-02-01T16:53:51;23.45;;;8.68;;
68484;SDS011;55472;50.060;21.960;2023-02-01T16:56:19;32.67;;;9.45;;
68484;SDS011;55472;50.060;21.960;2023-02-01T16:58:55;49.07;;;14.53;;
68484;SDS011;55472;50.060;21.960;2023-02-01T17:01:21;51.40;;;15.68;;
68484;SDS011;55472;50.060;21.960;2023-02-01T17:03:47;41.25;;;12.00;;
68484;SDS011;55472;50.060;21.960;2023-02-01T17:06:16;39.88;;;11.45;;
68484;SDS011;55472;50.060;21.960;2023-02-01T17:08:50;40.20;;;11.23;;
68484;SDS011;55472;50.060;21.960;2023-02-01T17:11:19;37.33;;;12.60;;
68484;SDS011;55472;50.060;21.960;2023-02-01T17:13:46;37.85;;;12.98;;
68484;SDS011;55472;50.060;21.960;2023-02-01T17:19:08;23.25;;;6.55;;
68484;SDS011;55472;50.060;21.960;2023-02-01T17:21:47;35.78;;;9.68;;
68484;SDS011;55472;50.060;21.960;2023-02-01T17:24:25;44.67;;;12.87;;
68484;SDS011;55472;50.060;21.960;2023-02-01T17:26:56;44.25;;;12.68;;
68484;SDS011;55472;50.060;21.960;2023-02-01T17:29:23;34.97;;;11.32;;
68484;SDS011;55472;50.060;21.960;2023-02-01T17:31:50;33.88;;;10.93;;
68484;SDS011;55472;50.060;21.960;2023-02-01T17:34:19;30.80;;;9.75;;
68484;SDS011;55472;50.060;21.960;2023-02-01T17:36:47;26.17;;;8.83;;
68484;SDS011;55472;50.060;21.960;2023-02-01T17:39:14;22.13;;;8.20;;